createdAt,value
2018-05-03T00:00:45.532Z,1014.12
2018-05-03T00:01:45.534Z,1014.11
2018-05-03T00:02:45.537Z,1014.14
2018-05-03T00:03:45.652Z,1014.16
2018-05-03T00:04:45.525Z,1014.15
2018-05-03T00:05:45.518Z,1014.19
2018-05-03T00:06:45.523Z,1014.18
2018-05-03T00:07:45.669Z,1014.2
2018-05-03T00:08:45.514Z,1014.2
2018-05-03T00:09:45.639Z,1014.21
2018-05-03T00:10:45.522Z,1014.24
2018-05-03T00:11:45.559Z,1014.24
2018-05-03T00:12:45.549Z,1014.29
2018-05-03T00:13:45.536Z,1014.28
2018-05-03T00:14:45.556Z,1014.32
2018-05-03T00:15:45.574Z,1014.31
2018-05-03T00:16:45.565Z,1014.29
2018-05-03T00:17:45.547Z,1014.29
2018-05-03T00:18:45.531Z,1014.34
2018-05-03T00:19:45.546Z,1014.27
2018-05-03T00:20:45.552Z,1014.33
2018-05-03T00:21:45.540Z,1014.29
2018-05-03T00:22:45.537Z,1014.34
2018-05-03T00:23:45.578Z,1014.29
2018-05-03T00:24:45.537Z,1014.33
2018-05-03T00:25:45.524Z,1014.33
2018-05-03T00:26:45.672Z,1014.29
2018-05-03T00:27:45.544Z,1014.33
2018-05-03T00:28:45.530Z,1014.35
2018-05-03T00:29:45.544Z,1014.36
2018-05-03T00:30:45.558Z,1014.36
2018-05-03T00:31:45.665Z,1014.35
2018-05-03T00:32:45.516Z,1014.36
2018-05-03T00:33:45.662Z,1014.4
2018-05-03T00:34:45.538Z,1014.35
2018-05-03T00:35:45.546Z,1014.37
2018-05-03T00:36:45.551Z,1014.4
2018-05-03T00:37:45.711Z,1014.42
2018-05-03T00:38:45.522Z,1014.43
2018-05-03T00:39:45.536Z,1014.44
2018-05-03T00:40:45.527Z,1014.48
2018-05-03T00:41:45.721Z,1014.47
2018-05-03T00:42:45.543Z,1014.49
2018-05-03T00:43:45.539Z,1014.52
2018-05-03T00:44:45.614Z,1014.5
2018-05-03T00:45:45.993Z,1014.48
2018-05-03T00:46:45.533Z,1014.52
2018-05-03T00:47:45.541Z,1014.5
2018-05-03T00:48:45.542Z,1014.53
2018-05-03T00:49:45.547Z,1014.54
2018-05-03T00:50:45.544Z,1014.52
2018-05-03T00:51:45.551Z,1014.54
2018-05-03T00:52:45.530Z,1014.52
2018-05-03T00:53:45.533Z,1014.55
2018-05-03T00:54:45.564Z,1014.57
2018-05-03T00:55:45.534Z,1014.53
2018-05-03T00:56:45.542Z,1014.51
2018-05-03T00:57:45.547Z,1014.49
2018-05-03T00:58:45.563Z,1014.5
2018-05-03T00:59:45.566Z,1014.52
2018-05-03T01:00:45.523Z,1014.51
2018-05-03T01:01:45.531Z,1014.52
2018-05-03T01:02:45.637Z,1014.52
2018-05-03T01:03:45.545Z,1014.54
2018-05-03T01:04:45.538Z,1014.56
2018-05-03T01:05:45.534Z,1014.57
2018-05-03T01:06:45.543Z,1014.58
2018-05-03T01:07:45.580Z,1014.56
2018-05-03T01:08:45.572Z,1014.6
2018-05-03T01:09:45.542Z,1014.56
2018-05-03T01:10:45.567Z,1014.56
2018-05-03T01:11:45.547Z,1014.49
2018-05-03T01:12:45.569Z,1014.52
2018-05-03T01:13:45.573Z,1014.53
2018-05-03T01:14:45.546Z,1014.5
2018-05-03T01:15:45.587Z,1014.49
2018-05-03T01:16:45.601Z,1014.5
2018-05-03T01:17:45.581Z,1014.52
2018-05-03T01:18:45.565Z,1014.46
2018-05-03T01:19:45.587Z,1014.45
2018-05-03T01:20:45.639Z,1014.48
2018-05-03T01:21:45.579Z,1014.46
2018-05-03T01:22:45.548Z,1014.42
2018-05-03T01:23:45.626Z,1014.46
2018-05-03T01:24:45.535Z,1014.47
2018-05-03T01:25:45.618Z,1014.5
2018-05-03T01:26:45.567Z,1014.53
2018-05-03T01:27:45.697Z,1014.56
2018-05-03T01:28:45.542Z,1014.56
2018-05-03T01:29:45.549Z,1014.55
2018-05-03T01:30:45.558Z,1014.51
2018-05-03T01:31:45.563Z,1014.57
2018-05-03T01:32:45.561Z,1014.57
2018-05-03T01:33:45.552Z,1014.59
2018-05-03T01:34:45.541Z,1014.6
2018-05-03T01:35:45.537Z,1014.61
2018-05-03T01:36:45.544Z,1014.62
2018-05-03T01:37:45.546Z,1014.6
2018-05-03T01:38:45.633Z,1014.59
2018-05-03T01:39:45.550Z,1014.61
2018-05-03T01:40:45.541Z,1014.59
2018-05-03T01:41:45.549Z,1014.57
2018-05-03T01:42:45.570Z,1014.57
2018-05-03T01:43:45.575Z,1014.58
2018-05-03T01:44:45.556Z,1014.59
2018-05-03T01:45:45.581Z,1014.6
2018-05-03T01:46:45.572Z,1014.62
2018-05-03T01:47:45.590Z,1014.62
2018-05-03T01:48:45.727Z,1014.65
2018-05-03T01:49:45.769Z,1014.64
2018-05-03T01:50:45.578Z,1014.67
2018-05-03T01:51:45.563Z,1014.75
2018-05-03T01:52:45.582Z,1014.76
2018-05-03T01:53:45.599Z,1014.77
2018-05-03T01:54:45.600Z,1014.76
2018-05-03T01:55:45.574Z,1014.81
2018-05-03T01:56:45.590Z,1014.82
2018-05-03T01:57:45.587Z,1014.8
2018-05-03T01:58:45.585Z,1014.8
2018-05-03T01:59:45.563Z,1014.73
2018-05-03T02:00:45.575Z,1014.76
2018-05-03T02:01:45.578Z,1014.75
2018-05-03T02:02:45.572Z,1014.73
2018-05-03T02:03:45.603Z,1014.69
2018-05-03T02:04:45.558Z,1014.74
2018-05-03T02:05:45.562Z,1014.72
2018-05-03T02:06:45.586Z,1014.73
2018-05-03T02:07:45.570Z,1014.74
2018-05-03T02:08:45.577Z,1014.71
2018-05-03T02:09:45.571Z,1014.7
2018-05-03T02:10:45.594Z,1014.73
2018-05-03T02:11:45.568Z,1014.72
2018-05-03T02:12:45.592Z,1014.73
2018-05-03T02:13:45.573Z,1014.76
2018-05-03T02:14:45.591Z,1014.81
2018-05-03T02:15:45.560Z,1014.78
2018-05-03T02:16:45.588Z,1014.84
2018-05-03T02:17:45.668Z,1014.82
2018-05-03T02:18:45.577Z,1014.82
2018-05-03T02:19:45.584Z,1014.82
2018-05-03T02:20:45.584Z,1014.86
2018-05-03T02:21:45.620Z,1014.83
2018-05-03T02:22:45.592Z,1014.84
2018-05-03T02:23:45.599Z,1014.85
2018-05-03T02:24:45.575Z,1014.87
2018-05-03T02:25:45.579Z,1014.83
2018-05-03T02:26:45.572Z,1014.86
2018-05-03T02:27:45.559Z,1014.85
2018-05-03T02:28:45.590Z,1014.85
2018-05-03T02:29:45.574Z,1014.78
2018-05-03T02:30:45.591Z,1014.79
2018-05-03T02:31:45.669Z,1014.71
2018-05-03T02:32:45.584Z,1014.73
2018-05-03T02:33:45.586Z,1014.72
2018-05-03T02:34:45.599Z,1014.68
2018-05-03T02:35:45.582Z,1014.67
2018-05-03T02:36:45.593Z,1014.71
2018-05-03T02:37:45.575Z,1014.71
2018-05-03T02:38:45.593Z,1014.69
2018-05-03T02:39:45.628Z,1014.63
2018-05-03T02:40:45.615Z,1014.65
2018-05-03T02:41:45.601Z,1014.63
2018-05-03T02:42:45.715Z,1014.64
2018-05-03T02:43:45.594Z,1014.65
2018-05-03T02:44:45.645Z,1014.68
2018-05-03T02:45:45.588Z,1014.7
2018-05-03T02:46:45.646Z,1014.72
2018-05-03T02:47:45.599Z,1014.76
2018-05-03T02:48:45.588Z,1014.76
2018-05-03T02:49:45.605Z,1014.79
2018-05-03T02:50:45.737Z,1014.76
2018-05-03T02:51:45.589Z,1014.8
2018-05-03T02:52:45.615Z,1014.81
2018-05-03T02:53:45.719Z,1014.81
2018-05-03T02:54:45.597Z,1014.82
2018-05-03T02:55:45.616Z,1014.84
2018-05-03T02:56:45.622Z,1014.87
2018-05-03T02:57:45.611Z,1014.86
2018-05-03T02:58:45.584Z,1014.84
2018-05-03T02:59:45.607Z,1014.88
2018-05-03T03:00:45.587Z,1014.85
2018-05-03T03:01:45.592Z,1014.84
2018-05-03T03:02:45.582Z,1014.87
2018-05-03T03:03:45.603Z,1014.84
2018-05-03T03:04:45.590Z,1014.85
2018-05-03T03:05:45.689Z,1014.86
2018-05-03T03:06:45.627Z,1014.81
2018-05-03T03:07:45.619Z,1014.77
2018-05-03T03:08:45.623Z,1014.78
2018-05-03T03:09:45.949Z,1014.78
2018-05-03T03:10:45.617Z,1014.68
2018-05-03T03:11:45.647Z,1014.69
2018-05-03T03:12:45.608Z,1014.69
2018-05-03T03:13:45.594Z,1014.7
2018-05-03T03:14:45.618Z,1014.7
2018-05-03T03:15:45.613Z,1014.76
2018-05-03T03:16:45.605Z,1014.73
2018-05-03T03:17:45.616Z,1014.73
2018-05-03T03:18:45.606Z,1014.73
2018-05-03T03:19:45.594Z,1014.73
2018-05-03T03:20:45.615Z,1014.76
2018-05-03T03:21:45.620Z,1014.77
2018-05-03T03:22:45.598Z,1014.76
2018-05-03T03:23:45.619Z,1014.8
2018-05-03T03:24:45.610Z,1014.84
2018-05-03T03:25:45.596Z,1014.81
2018-05-03T03:26:45.615Z,1014.84
2018-05-03T03:27:45.610Z,1014.84
2018-05-03T03:28:45.601Z,1014.9
2018-05-03T03:29:45.608Z,1014.9
2018-05-03T03:30:45.661Z,1014.92
2018-05-03T03:31:45.670Z,1014.96
2018-05-03T03:32:45.781Z,1014.94
2018-05-03T03:33:45.644Z,1014.93
2018-05-03T03:34:45.618Z,1014.93
2018-05-03T03:35:45.619Z,1014.89
2018-05-03T03:36:45.627Z,1014.92
2018-05-03T03:37:45.610Z,1014.96
2018-05-03T03:38:45.794Z,1015.02
2018-05-03T03:39:45.622Z,1015.04
2018-05-03T03:40:45.686Z,1014.96
2018-05-03T03:41:45.604Z,1015.02
2018-05-03T03:42:45.608Z,1015
2018-05-03T03:43:45.601Z,1014.97
2018-05-03T03:44:45.640Z,1014.95
2018-05-03T03:45:45.626Z,1014.94
2018-05-03T03:46:45.609Z,1015.01
2018-05-03T03:47:45.636Z,1014.99
2018-05-03T03:48:45.608Z,1015.02
2018-05-03T03:49:45.716Z,1015.05
2018-05-03T03:50:45.660Z,1015.02
2018-05-03T03:51:45.612Z,1015.05
2018-05-03T03:52:45.700Z,1015.07
2018-05-03T03:53:45.601Z,1015.08
2018-05-03T03:54:45.751Z,1015.09
2018-05-03T03:55:45.639Z,1015.12
2018-05-03T03:56:45.662Z,1015.12
2018-05-03T03:57:45.629Z,1015.13
2018-05-03T03:58:45.648Z,1015.11
2018-05-03T03:59:45.620Z,1015.14
2018-05-03T04:00:45.632Z,1015.14
2018-05-03T04:01:45.622Z,1015.09
2018-05-03T04:02:45.620Z,1015.1
2018-05-03T04:03:45.648Z,1015.07
2018-05-03T04:04:45.633Z,1015.11
2018-05-03T04:05:45.649Z,1015.1
2018-05-03T04:06:45.615Z,1015.14
2018-05-03T04:07:45.618Z,1015.17
2018-05-03T04:08:45.618Z,1015.15
2018-05-03T04:09:45.637Z,1015.17
2018-05-03T04:10:45.633Z,1015.16
2018-05-03T04:11:45.699Z,1015.15
2018-05-03T04:12:45.662Z,1015.12
2018-05-03T04:13:45.610Z,1015.12
2018-05-03T04:14:45.653Z,1015.16
2018-05-03T04:15:45.607Z,1015.13
2018-05-03T04:16:45.612Z,1015.12
2018-05-03T04:17:45.660Z,1015.16
2018-05-03T04:18:45.649Z,1015.17
2018-05-03T04:19:45.659Z,1015.18
2018-05-03T04:20:45.628Z,1015.16
2018-05-03T04:21:45.636Z,1015.11
2018-05-03T04:22:45.642Z,1015.18
2018-05-03T04:23:45.656Z,1015.08
2018-05-03T04:24:45.653Z,1015.15
2018-05-03T04:25:45.628Z,1015.11
2018-05-03T04:26:45.656Z,1015.12
2018-05-03T04:27:45.633Z,1015.16
2018-05-03T04:28:45.616Z,1015.15
2018-05-03T04:29:45.887Z,1015.18
2018-05-03T04:30:45.641Z,1015.16
2018-05-03T04:31:45.639Z,1015.17
2018-05-03T04:32:45.642Z,1015.16
2018-05-03T04:33:45.630Z,1015.16
2018-05-03T04:34:45.654Z,1015.16
2018-05-03T04:35:45.632Z,1015.18
2018-05-03T04:36:45.658Z,1015.18
2018-05-03T04:37:46.716Z,1015.19
2018-05-03T04:38:45.841Z,1015.19
2018-05-03T04:39:45.658Z,1015.17
2018-05-03T04:40:45.628Z,1015.22
2018-05-03T04:41:45.655Z,1015.24
2018-05-03T04:42:45.651Z,1015.27
2018-05-03T04:43:45.673Z,1015.26
2018-05-03T04:44:45.662Z,1015.3
2018-05-03T04:45:45.682Z,1015.34
2018-05-03T04:46:45.633Z,1015.35
2018-05-03T04:47:45.646Z,1015.37
2018-05-03T04:48:45.648Z,1015.34
2018-05-03T04:49:45.667Z,1015.41
2018-05-03T04:50:45.837Z,1015.43
2018-05-03T04:51:45.722Z,1015.4
2018-05-03T04:52:45.641Z,1015.41
2018-05-03T04:53:45.719Z,1015.41
2018-05-03T04:54:45.843Z,1015.4
2018-05-03T04:55:45.678Z,1015.38
2018-05-03T04:56:45.673Z,1015.38
2018-05-03T04:57:45.648Z,1015.35
2018-05-03T04:58:45.648Z,1015.33
2018-05-03T04:59:45.672Z,1015.36
2018-05-03T05:00:45.652Z,1015.36
2018-05-03T05:01:45.641Z,1015.39
2018-05-03T05:02:45.657Z,1015.38
2018-05-03T05:03:45.642Z,1015.4
2018-05-03T05:04:45.732Z,1015.38
2018-05-03T05:05:45.665Z,1015.39
2018-05-03T05:06:45.635Z,1015.44
2018-05-03T05:07:45.725Z,1015.45
2018-05-03T05:08:45.648Z,1015.45
2018-05-03T05:09:45.706Z,1015.48
2018-05-03T05:10:45.643Z,1015.46
2018-05-03T05:11:45.667Z,1015.53
2018-05-03T05:12:45.662Z,1015.51
2018-05-03T05:13:45.665Z,1015.5
2018-05-03T05:14:45.669Z,1015.51
2018-05-03T05:15:45.662Z,1015.54
2018-05-03T05:16:45.668Z,1015.56
2018-05-03T05:17:45.690Z,1015.54
2018-05-03T05:18:45.658Z,1015.54
2018-05-03T05:19:45.664Z,1015.56
2018-05-03T05:20:45.662Z,1015.57
2018-05-03T05:21:45.746Z,1015.58
2018-05-03T05:22:45.678Z,1015.58
2018-05-03T05:23:45.650Z,1015.55
2018-05-03T05:24:45.664Z,1015.6
2018-05-03T05:25:45.667Z,1015.59
2018-05-03T05:26:45.649Z,1015.6
2018-05-03T05:27:45.671Z,1015.6
2018-05-03T05:28:45.639Z,1015.63
2018-05-03T05:29:45.684Z,1015.61
2018-05-03T05:30:45.830Z,1015.62
2018-05-03T05:31:45.683Z,1015.7
2018-05-03T05:32:45.672Z,1015.69
2018-05-03T05:33:45.684Z,1015.66
2018-05-03T05:34:45.667Z,1015.72
2018-05-03T05:35:45.667Z,1015.73
2018-05-03T05:36:45.651Z,1015.72
2018-05-03T05:37:45.660Z,1015.75
2018-05-03T05:38:45.850Z,1015.73
2018-05-03T05:39:45.682Z,1015.74
2018-05-03T05:40:45.670Z,1015.74
2018-05-03T05:41:45.645Z,1015.75
2018-05-03T05:42:45.679Z,1015.73
2018-05-03T05:43:45.675Z,1015.78
2018-05-03T05:44:45.775Z,1015.8
2018-05-03T05:45:45.728Z,1015.85
2018-05-03T05:46:45.684Z,1015.88
2018-05-03T05:47:45.680Z,1015.89
2018-05-03T05:48:45.687Z,1015.9
2018-05-03T05:49:45.659Z,1015.88
2018-05-03T05:50:45.641Z,1015.94
2018-05-03T05:51:45.725Z,1015.92
2018-05-03T05:52:45.666Z,1015.92
2018-05-03T05:53:45.692Z,1015.89
2018-05-03T05:54:45.682Z,1015.96
2018-05-03T05:55:45.679Z,1015.95
2018-05-03T05:56:45.777Z,1015.98
2018-05-03T05:57:45.667Z,1016
2018-05-03T05:58:45.678Z,1016.02
2018-05-03T05:59:45.781Z,1016.04
2018-05-03T06:00:45.652Z,1016.04
2018-05-03T06:01:45.846Z,1016.07
2018-05-03T06:02:45.674Z,1016.09
2018-05-03T06:03:45.645Z,1016.09
2018-05-03T06:04:45.661Z,1016.16
2018-05-03T06:05:45.657Z,1016.11
2018-05-03T06:06:45.806Z,1016.17
2018-05-03T06:07:45.668Z,1016.15
2018-05-03T06:08:45.661Z,1016.22
2018-05-03T06:09:45.699Z,1016.22
2018-05-03T06:10:45.677Z,1016.23
2018-05-03T06:11:45.697Z,1016.27
2018-05-03T06:12:45.669Z,1016.26
2018-05-03T06:13:45.669Z,1016.32
2018-05-03T06:14:45.664Z,1016.31
2018-05-03T06:15:45.768Z,1016.29
2018-05-03T06:16:45.669Z,1016.34
2018-05-03T06:17:45.682Z,1016.36
2018-05-03T06:18:45.678Z,1016.34
2018-05-03T06:19:45.663Z,1016.37
2018-05-03T06:20:45.689Z,1016.39
2018-05-03T06:21:45.773Z,1016.4
2018-05-03T06:22:45.680Z,1016.42
2018-05-03T06:23:45.672Z,1016.46
2018-05-03T06:24:45.706Z,1016.5
2018-05-03T06:25:45.688Z,1016.51
2018-05-03T06:26:45.671Z,1016.5
2018-05-03T06:27:45.680Z,1016.52
2018-05-03T06:28:45.725Z,1016.48
2018-05-03T06:29:45.672Z,1016.53
2018-05-03T06:30:45.722Z,1016.51
2018-05-03T06:31:45.691Z,1016.5
2018-05-03T06:32:45.676Z,1016.44
2018-05-03T06:33:45.686Z,1016.44
2018-05-03T06:34:46.934Z,1016.46
2018-05-03T06:35:45.682Z,1016.46
2018-05-03T06:36:45.681Z,1016.47
2018-05-03T06:37:45.718Z,1016.49
2018-05-03T06:38:45.765Z,1016.47
2018-05-03T06:39:45.683Z,1016.48
2018-05-03T06:40:45.743Z,1016.51
2018-05-03T06:41:45.684Z,1016.49
2018-05-03T06:42:45.719Z,1016.56
2018-05-03T06:43:45.661Z,1016.53
2018-05-03T06:44:45.704Z,1016.53
2018-05-03T06:45:45.675Z,1016.53
2018-05-03T06:46:45.682Z,1016.53
2018-05-03T06:47:45.788Z,1016.52
2018-05-03T06:48:45.678Z,1016.55
2018-05-03T06:49:45.690Z,1016.54
2018-05-03T06:50:45.701Z,1016.56
2018-05-03T06:51:45.673Z,1016.57
2018-05-03T06:52:45.669Z,1016.56
2018-05-03T06:53:45.736Z,1016.6
2018-05-03T06:54:45.855Z,1016.62
2018-05-03T06:55:45.666Z,1016.61
2018-05-03T06:56:45.694Z,1016.6
2018-05-03T06:57:45.684Z,1016.61
2018-05-03T06:58:45.679Z,1016.6
2018-05-03T06:59:45.681Z,1016.6
2018-05-03T07:00:45.744Z,1016.62
2018-05-03T07:01:45.693Z,1016.65
2018-05-03T07:02:45.696Z,1016.63
2018-05-03T07:03:45.696Z,1016.67
2018-05-03T07:04:45.685Z,1016.68
2018-05-03T07:05:45.683Z,1016.66
2018-05-03T07:06:45.729Z,1016.69
2018-05-03T07:07:45.709Z,1016.73
2018-05-03T07:08:45.689Z,1016.71
2018-05-03T07:09:45.694Z,1016.7
2018-05-03T07:10:45.687Z,1016.72
2018-05-03T07:11:45.709Z,1016.78
2018-05-03T07:12:45.692Z,1016.84
2018-05-03T07:13:45.684Z,1016.81
2018-05-03T07:14:45.716Z,1016.82
2018-05-03T07:15:45.686Z,1016.77
2018-05-03T07:16:45.690Z,1016.83
2018-05-03T07:17:45.707Z,1016.86
2018-05-03T07:18:45.701Z,1016.86
2018-05-03T07:19:45.700Z,1016.86
2018-05-03T07:20:45.718Z,1016.84
2018-05-03T07:21:45.740Z,1016.86
2018-05-03T07:22:45.689Z,1016.89
2018-05-03T07:23:45.723Z,1016.87
2018-05-03T07:24:45.702Z,1016.89
2018-05-03T07:25:45.700Z,1016.93
2018-05-03T07:26:45.687Z,1016.92
2018-05-03T07:27:45.723Z,1016.98
2018-05-03T07:28:45.714Z,1016.95
2018-05-03T07:29:45.701Z,1016.97
2018-05-03T07:30:45.731Z,1016.92
2018-05-03T07:31:45.725Z,1016.91
2018-05-03T07:32:45.741Z,1016.94
2018-05-03T07:33:45.701Z,1016.94
2018-05-03T07:34:45.839Z,1016.97
2018-05-03T07:35:45.725Z,1016.97
2018-05-03T07:36:45.715Z,1016.99
2018-05-03T07:37:45.732Z,1017.01
2018-05-03T07:38:45.714Z,1017.03
2018-05-03T07:39:45.704Z,1017.07
2018-05-03T07:40:46.130Z,1017.04
2018-05-03T07:41:45.703Z,1017.03
2018-05-03T07:42:45.776Z,1017.07
2018-05-03T07:43:45.732Z,1017.08
2018-05-03T07:44:45.772Z,1017.06
2018-05-03T07:45:46.082Z,1017.04
2018-05-03T07:46:45.743Z,1017.04
2018-05-03T07:47:45.728Z,1017.07
2018-05-03T07:48:45.752Z,1017.04
2018-05-03T07:49:45.702Z,1017.07
2018-05-03T07:50:45.734Z,1017.06
2018-05-03T07:51:45.745Z,1017.08
2018-05-03T07:52:45.741Z,1017.08
2018-05-03T07:53:45.711Z,1017.07
2018-05-03T07:54:45.711Z,1017.03
2018-05-03T07:55:45.710Z,1017.02
2018-05-03T07:56:45.943Z,1017.01
2018-05-03T07:57:45.752Z,1017.04
2018-05-03T07:58:45.723Z,1017.06
2018-05-03T07:59:45.702Z,1017.01
2018-05-03T08:00:45.715Z,1017.11
2018-05-03T08:01:45.718Z,1017.1
2018-05-03T08:02:45.723Z,1017.12
2018-05-03T08:03:45.713Z,1017.14
2018-05-03T08:04:45.964Z,1017.19
2018-05-03T08:05:45.718Z,1017.16
2018-05-03T08:06:45.736Z,1017.21
2018-05-03T08:07:46.550Z,1017.16
2018-05-03T08:08:45.786Z,1017.18
2018-05-03T08:09:45.798Z,1017.12
2018-05-03T08:10:45.710Z,1017.14
2018-05-03T08:11:45.736Z,1017.11
2018-05-03T08:12:45.707Z,1017.05
2018-05-03T08:13:45.700Z,1017.07
2018-05-03T08:14:45.715Z,1017.1
2018-05-03T08:15:45.713Z,1017.08
2018-05-03T08:16:45.728Z,1017.1
2018-05-03T08:17:45.720Z,1017.11
2018-05-03T08:18:45.725Z,1017.17
2018-05-03T08:19:45.716Z,1017.19
2018-05-03T08:20:45.749Z,1017.17
2018-05-03T08:21:45.748Z,1017.14
2018-05-03T08:22:45.719Z,1017.19
2018-05-03T08:23:45.741Z,1017.19
2018-05-03T08:24:45.723Z,1017.21
2018-05-03T08:25:45.729Z,1017.27
2018-05-03T08:26:45.748Z,1017.35
2018-05-03T08:27:45.844Z,1017.31
2018-05-03T08:28:45.737Z,1017.38
2018-05-03T08:29:45.715Z,1017.4
2018-05-03T08:30:45.749Z,1017.38
2018-05-03T08:31:45.902Z,1017.39
2018-05-03T08:32:45.800Z,1017.39
2018-05-03T08:33:45.799Z,1017.36
2018-05-03T08:34:45.748Z,1017.3
2018-05-03T08:35:45.731Z,1017.32
2018-05-03T08:36:45.740Z,1017.28
2018-05-03T08:37:45.736Z,1017.26
2018-05-03T08:38:45.735Z,1017.26
2018-05-03T08:39:45.740Z,1017.29
2018-05-03T08:40:45.747Z,1017.28
2018-05-03T08:41:45.877Z,1017.28
2018-05-03T08:42:45.732Z,1017.25
2018-05-03T08:43:45.731Z,1017.28
2018-05-03T08:44:45.752Z,1017.32
2018-05-03T08:45:45.742Z,1017.24
2018-05-03T08:46:45.759Z,1017.31
2018-05-03T08:47:45.776Z,1017.29
2018-05-03T08:48:45.742Z,1017.24
2018-05-03T08:49:45.789Z,1017.31
2018-05-03T08:50:45.724Z,1017.26
2018-05-03T08:51:45.753Z,1017.23
2018-05-03T08:52:45.759Z,1017.26
2018-05-03T08:53:45.752Z,1017.25
2018-05-03T08:54:45.782Z,1017.25
2018-05-03T08:55:45.848Z,1017.26
2018-05-03T08:56:45.752Z,1017.33
2018-05-03T08:57:45.754Z,1017.27
2018-05-03T08:58:45.918Z,1017.2
2018-05-03T08:59:45.798Z,1017.22
2018-05-03T09:00:45.729Z,1017.26
2018-05-03T09:01:45.854Z,1017.28
2018-05-03T09:02:45.750Z,1017.32
2018-05-03T09:03:45.744Z,1017.36
2018-05-03T09:04:45.750Z,1017.39
2018-05-03T09:05:45.920Z,1017.35
2018-05-03T09:06:45.747Z,1017.33
2018-05-03T09:07:45.804Z,1017.3
2018-05-03T09:08:45.765Z,1017.36
2018-05-03T09:09:45.902Z,1017.39
2018-05-03T09:10:45.760Z,1017.38
2018-05-03T09:11:45.782Z,1017.41
2018-05-03T09:12:45.757Z,1017.44
2018-05-03T09:13:45.755Z,1017.43
2018-05-03T09:14:45.863Z,1017.45
2018-05-03T09:15:45.776Z,1017.47
2018-05-03T09:16:45.761Z,1017.47
2018-05-03T09:17:45.792Z,1017.47
2018-05-03T09:18:45.751Z,1017.46
2018-05-03T09:19:45.767Z,1017.46
2018-05-03T09:20:45.747Z,1017.42
2018-05-03T09:21:45.749Z,1017.43
2018-05-03T09:22:45.773Z,1017.45
2018-05-03T09:23:45.763Z,1017.41
2018-05-03T09:24:45.747Z,1017.44
2018-05-03T09:25:45.758Z,1017.47
2018-05-03T09:26:45.841Z,1017.42
2018-05-03T09:27:45.760Z,1017.45
2018-05-03T09:28:45.761Z,1017.5
2018-05-03T09:29:45.789Z,1017.46
2018-05-03T09:30:45.763Z,1017.49
2018-05-03T09:31:45.765Z,1017.51
2018-05-03T09:32:45.751Z,1017.5
2018-05-03T09:33:45.777Z,1017.51
2018-05-03T09:34:45.771Z,1017.5
2018-05-03T09:35:45.790Z,1017.47
2018-05-03T09:36:45.796Z,1017.45
2018-05-03T09:37:45.759Z,1017.46
2018-05-03T09:38:45.769Z,1017.49
2018-05-03T09:39:45.771Z,1017.47
2018-05-03T09:40:45.794Z,1017.49
2018-05-03T09:41:45.765Z,1017.49
2018-05-03T09:42:45.758Z,1017.51
2018-05-03T09:43:45.762Z,1017.5
2018-05-03T09:44:45.859Z,1017.46
2018-05-03T09:45:45.825Z,1017.53
2018-05-03T09:46:45.819Z,1017.54
2018-05-03T09:47:45.912Z,1017.56
2018-05-03T09:48:45.776Z,1017.6
2018-05-03T09:49:45.919Z,1017.53
2018-05-03T09:50:45.846Z,1017.55
2018-05-03T09:51:45.850Z,1017.54
2018-05-03T09:52:45.895Z,1017.56
2018-05-03T09:53:45.874Z,1017.57
2018-05-03T09:54:45.797Z,1017.59
2018-05-03T09:55:45.781Z,1017.59
2018-05-03T09:56:45.753Z,1017.6
2018-05-03T09:57:45.864Z,1017.57
2018-05-03T09:58:45.818Z,1017.63
2018-05-03T09:59:45.885Z,1017.57
2018-05-03T10:00:45.831Z,1017.59
2018-05-03T10:01:45.791Z,1017.61
2018-05-03T10:02:45.831Z,1017.65
2018-05-03T10:03:45.762Z,1017.57
2018-05-03T10:04:46.012Z,1017.66
2018-05-03T10:05:45.862Z,1017.69
2018-05-03T10:06:45.798Z,1017.66
2018-05-03T10:07:45.801Z,1017.65
2018-05-03T10:08:45.784Z,1017.61
2018-05-03T10:09:45.784Z,1017.66
2018-05-03T10:10:45.811Z,1017.59
2018-05-03T10:11:45.797Z,1017.63
2018-05-03T10:12:45.808Z,1017.58
2018-05-03T10:13:45.772Z,1017.63
2018-05-03T10:14:45.811Z,1017.61
2018-05-03T10:15:45.833Z,1017.62
2018-05-03T10:16:45.805Z,1017.63
2018-05-03T10:17:45.813Z,1017.6
2018-05-03T10:18:45.929Z,1017.58
2018-05-03T10:19:45.901Z,1017.57
2018-05-03T10:20:45.791Z,1017.58
2018-05-03T10:21:45.788Z,1017.64
2018-05-03T10:22:45.809Z,1017.63
2018-05-03T10:23:45.916Z,1017.6
2018-05-03T10:24:45.847Z,1017.63
2018-05-03T10:25:45.809Z,1017.61
2018-05-03T10:26:45.838Z,1017.64
2018-05-03T10:27:45.836Z,1017.6
2018-05-03T10:28:45.817Z,1017.59
2018-05-03T10:29:45.772Z,1017.59
2018-05-03T10:30:45.825Z,1017.61
2018-05-03T10:31:45.860Z,1017.51
2018-05-03T10:32:45.802Z,1017.51
2018-05-03T10:33:45.830Z,1017.46
2018-05-03T10:34:45.811Z,1017.49
2018-05-03T10:35:45.969Z,1017.51
2018-05-03T10:36:45.797Z,1017.58
2018-05-03T10:37:45.793Z,1017.53
2018-05-03T10:38:45.779Z,1017.57
2018-05-03T10:39:45.820Z,1017.53
2018-05-03T10:40:45.802Z,1017.48
2018-05-03T10:41:45.801Z,1017.52
2018-05-03T10:42:45.820Z,1017.49
2018-05-03T10:43:46.103Z,1017.53
2018-05-03T10:44:45.799Z,1017.5
2018-05-03T10:45:45.797Z,1017.48
2018-05-03T10:46:45.802Z,1017.46
2018-05-03T10:47:45.801Z,1017.47
2018-05-03T10:48:45.817Z,1017.49
2018-05-03T10:49:45.825Z,1017.48
2018-05-03T10:50:45.826Z,1017.4
2018-05-03T10:51:45.832Z,1017.4
2018-05-03T10:52:45.861Z,1017.42
2018-05-03T10:53:45.790Z,1017.42
2018-05-03T10:54:45.923Z,1017.39
2018-05-03T10:55:45.857Z,1017.35
2018-05-03T10:56:45.875Z,1017.32
2018-05-03T10:57:45.815Z,1017.25
2018-05-03T10:58:45.828Z,1017.29
2018-05-03T10:59:45.804Z,1017.29
2018-05-03T11:00:45.839Z,1017.3
2018-05-03T11:01:45.865Z,1017.28
2018-05-03T11:02:45.877Z,1017.28
2018-05-03T11:03:46.106Z,1017.29
2018-05-03T11:04:45.839Z,1017.28
2018-05-03T11:05:45.841Z,1017.3
2018-05-03T11:06:45.864Z,1017.28
2018-05-03T11:07:45.840Z,1017.28
2018-05-03T11:08:45.852Z,1017.29
2018-05-03T11:09:45.810Z,1017.29
2018-05-03T11:10:45.827Z,1017.25
2018-05-03T11:11:45.802Z,1017.25
2018-05-03T11:12:45.802Z,1017.2
2018-05-03T11:13:45.821Z,1017.18
2018-05-03T11:14:45.907Z,1017.16
2018-05-03T11:15:45.831Z,1017.13
2018-05-03T11:16:45.935Z,1017.14
2018-05-03T11:17:45.891Z,1017.18
2018-05-03T11:18:45.853Z,1017.2
2018-05-03T11:19:45.828Z,1017.19
2018-05-03T11:20:45.939Z,1017.16
2018-05-03T11:21:45.830Z,1017.19
2018-05-03T11:22:45.857Z,1017.18
2018-05-03T11:23:46.002Z,1017.19
2018-05-03T11:24:45.923Z,1017.18
2018-05-03T11:25:45.862Z,1017.23
2018-05-03T11:26:45.818Z,1017.09
2018-05-03T11:27:45.892Z,1017.19
2018-05-03T11:28:45.953Z,1017.17
2018-05-03T11:29:45.986Z,1017.15
2018-05-03T11:30:45.967Z,1017.18
2018-05-03T11:31:45.850Z,1017.15
2018-05-03T11:32:45.804Z,1017.13
2018-05-03T11:33:45.813Z,1017.1
2018-05-03T11:34:45.848Z,1017.13
2018-05-03T11:35:45.814Z,1017.15
2018-05-03T11:36:46.129Z,1017.12
2018-05-03T11:37:45.841Z,1017.07
2018-05-03T11:38:45.839Z,1017.15
2018-05-03T11:39:45.846Z,1017.09
2018-05-03T11:40:45.869Z,1017.07
2018-05-03T11:41:45.825Z,1017.09
2018-05-03T11:42:46.098Z,1017.02
2018-05-03T11:43:45.820Z,1017.09
2018-05-03T11:44:45.829Z,1017.06
2018-05-03T11:45:45.893Z,1017.08
2018-05-03T11:46:45.832Z,1017.02
2018-05-03T11:47:45.860Z,1017.06
2018-05-03T11:48:45.959Z,1017.03
2018-05-03T11:49:45.814Z,1017.08
2018-05-03T11:50:45.839Z,1017.02
2018-05-03T11:51:45.814Z,1017.01
2018-05-03T11:52:45.862Z,1017.03
2018-05-03T11:53:45.828Z,1016.96
2018-05-03T11:54:45.948Z,1016.99
2018-05-03T11:55:45.883Z,1016.97
2018-05-03T11:56:45.818Z,1016.98
2018-05-03T11:57:46.032Z,1016.92
2018-05-03T11:58:45.832Z,1016.93
2018-05-03T11:59:45.904Z,1016.98
2018-05-03T12:00:45.841Z,1016.92
2018-05-03T12:01:45.817Z,1016.98
2018-05-03T12:02:45.840Z,1016.91
2018-05-03T12:03:45.838Z,1016.97
2018-05-03T12:04:45.955Z,1016.92
2018-05-03T12:05:45.842Z,1016.9
2018-05-03T12:06:46.105Z,1016.98
2018-05-03T12:07:45.913Z,1016.96
2018-05-03T12:08:45.852Z,1016.91